Time;durP1;ratioP1;P1;durP2;ratioP2;P2;SDS_P1;SDS_P2;PMS_P1;PMS_P2;Temp;Humidity;BMP_temperature;BMP_pressure;BME280_temperature;BME280_humidity;BME280_pressure;Samples;Min_cycle;Max_cycle;Signal;HPM_P1;HPM_P2
2022/10/24 00:03:34;;;;;;;4.35;2.20;;;;;;;18.89;65.17;96351.00;10561776;28;20031;-30
2022/10/24 00:08:36;;;;;;;3.33;1.93;;;;;;;18.92;65.07;96341.69;10564732;28;20042;-30
2022/10/24 00:13:37;;;;;;;3.20;1.67;;;;;;;18.91;65.19;96360.31;10561441;28;20028;-30
2022/10/24 00:18:38;;;;;;;5.57;2.30;;;;;;;18.90;65.13;96365.38;10565012;28;20470;-31
2022/10/24 00:23:38;;;;;;;5.00;2.47;;;;;;;18.91;65.21;96367.09;10558932;28;20557;-30
2022/10/24 00:28:39;;;;;;;6.18;2.10;;;;;;;18.88;66.79;96380.63;10566522;28;20100;-30
2022/10/24 00:33:41;;;;;;;3.67;1.90;;;;;;;19.04;67.24;96376.28;10561321;28;20493;-31
2022/10/24 00:38:42;;;;;;;2.85;1.85;;;;;;;19.08;66.90;96350.03;10567538;28;20035;-31
2022/10/24 00:43:43;;;;;;;3.00;1.27;;;;;;;19.05;66.55;96377.94;10554197;28;20031;-29
2022/10/24 00:48:50;;;;;;;3.40;1.67;;;;;;;19.00;65.50;96372.09;10560963;28;20493;-30
2022/10/24 00:54:12;;;;;;;2.58;1.80;;;;;;;18.96;65.40;96365.34;10559584;28;20098;-31
2022/10/24 00:59:13;;;;;;;2.88;1.88;;;;;;;18.93;65.32;96371.28;10561594;28;20031;-30
2022/10/24 01:04:14;;;;;;;3.40;1.67;;;;;;;18.92;65.04;96366.22;10558594;28;20035;-31
2022/10/24 01:09:20;;;;;;;3.03;1.70;;;;;;;18.85;64.96;96362.06;10564210;28;20167;-29
2022/10/24 01:14:52;;;;;;;2.50;1.50;;;;;;;18.90;65.12;96368.75;10560942;28;20214;-30
2022/10/24 01:20:31;;;;;;;1.75;1.50;;;;;;;18.90;64.96;96375.53;10557689;28;20032;-30
2022/10/24 01:25:52;;;;;;;2.47;1.40;;;;;;;18.90;65.12;96375.53;10514315;28;20031;-30
2022/10/24 01:31:04;;;;;;;3.40;1.73;;;;;;;18.99;67.07;96381.38;10559861;28;20024;-30
2022/10/24 01:36:10;;;;;;;3.28;2.03;;;;;;;19.06;66.85;96397.38;10561386;28;20069;-30
2022/10/24 01:41:21;;;;;;;4.63;2.30;;;;;;;19.09;66.77;96393.13;10563206;28;20035;-29
2022/10/24 01:46:27;;;;;;;2.35;1.50;;;;;;;19.05;65.77;96395.72;10558811;28;20051;-30
2022/10/24 01:51:30;;;;;;;2.75;1.67;;;;;;;19.00;65.73;96372.91;10560095;28;20039;-31
2022/10/24 01:56:31;;;;;;;2.30;1.63;;;;;;;18.95;65.15;96354.38;10560919;28;20105;-30
2022/10/24 02:01:34;;;;;;;2.78;1.60;;;;;;;18.90;65.12;96335.78;10557534;28;20072;-30
2022/10/24 02:06:40;;;;;;;2.55;1.70;;;;;;;18.91;65.11;96357.75;10560134;28;20058;-31
2022/10/24 02:11:42;;;;;;;2.42;1.88;;;;;;;18.90;65.07;96372.97;10557290;28;20208;-30
2022/10/24 02:16:43;;;;;;;2.15;1.38;;;;;;;18.86;64.94;96354.44;10559411;28;20111;-30
2022/10/24 02:22:16;;;;;;;2.78;1.45;;;;;;;18.91;64.97;96351.88;10554876;28;20644;-30
2022/10/24 02:27:45;;;;;;;2.90;1.60;;;;;;;18.89;65.15;96344.25;10557172;28;20046;-30
2022/10/24 02:32:50;;;;;;;4.30;2.17;;;;;;;18.94;66.89;96344.22;10552676;28;20054;-31
2022/10/24 02:37:56;;;;;;;2.15;1.80;;;;;;;19.05;67.14;96355.13;10559730;28;20514;-31
2022/10/24 02:42:57;;;;;;;2.63;1.75;;;;;;;19.05;66.79;96344.97;10560933;28;20046;-30
2022/10/24 02:48:03;;;;;;;2.38;1.60;;;;;;;19.03;65.76;96326.38;10566113;28;20028;-31
2022/10/24 02:53:04;;;;;;;2.60;1.48;;;;;;;18.99;65.49;96323.03;10563510;28;20027;-30
2022/10/24 02:58:05;;;;;;;3.08;2.00;;;;;;;18.97;64.87;96351.78;10570696;28;20035;-30
2022/10/24 03:03:05;;;;;;;3.50;1.60;;;;;;;18.93;65.00;96337.47;10569103;28;20031;-30
2022/10/24 03:08:06;;;;;;;1.92;1.27;;;;;;;18.92;65.21;96351.84;10559217;28;20316;-31
2022/10/24 03:13:06;;;;;;;3.27;1.27;;;;;;;18.91;65.08;96342.53;10569185;28;20040;-30
2022/10/24 03:18:07;;;;;;;1.92;1.50;;;;;;;18.85;65.28;96347.66;10570170;28;20350;-30
2022/10/24 03:23:07;;;;;;;2.17;1.30;;;;;;;18.91;65.10;96369.63;10561188;28;20028;-30
2022/10/24 03:28:07;;;;;;;2.47;1.27;;;;;;;18.91;65.12;96372.97;10564037;28;20035;-30
2022/10/24 03:33:08;;;;;;;3.47;1.20;;;;;;;18.90;65.14;96396.66;10563023;28;20031;-30
2022/10/24 03:38:08;;;;;;;2.40;1.63;;;;;;;19.03;67.05;96416.03;10569889;28;20027;-30
2022/10/24 03:43:08;;;;;;;1.48;1.20;;;;;;;19.08;66.71;96426.97;10565528;28;20035;-31
2022/10/24 03:48:10;;;;;;;2.45;1.30;;;;;;;18.98;65.98;96414.38;10556484;28;20477;-31
2022/10/24 03:53:10;;;;;;;2.42;1.58;;;;;;;19.03;65.70;96402.50;10560561;28;20063;-31
2022/10/24 03:58:11;;;;;;;2.20;1.40;;;;;;;18.98;65.39;96419.44;10558494;28;20087;-31
2022/10/24 04:03:11;;;;;;;2.23;1.33;;;;;;;18.93;65.30;96431.31;10562721;28;20608;-31
2022/10/24 04:08:11;;;;;;;2.27;1.63;;;;;;;18.93;65.01;96433.88;10557600;28;20277;-31
2022/10/24 04:13:12;;;;;;;2.67;1.23;;;;;;;18.91;65.07;96438.13;10566893;28;20037;-31
2022/10/24 04:18:12;;;;;;;2.13;1.30;;;;;;;18.90;65.15;96409.34;10567090;28;20485;-30
2022/10/24 04:23:13;;;;;;;2.10;1.43;;;;;;;18.90;65.02;96385.66;10565840;28;20285;-32
2022/10/24 04:28:13;;;;;;;1.52;1.17;;;;;;;18.90;65.00;96395.81;10557379;28;20766;-30
2022/10/24 04:33:13;;;;;;;2.03;1.20;;;;;;;18.87;65.15;96388.25;10560515;28;20106;-30
2022/10/24 04:38:15;;;;;;;3.10;1.80;;;;;;;18.94;66.63;96382.28;10562496;28;20301;-30
2022/10/24 04:43:15;;;;;;;4.22;1.50;;;;;;;19.05;67.33;96395.72;10556434;28;20044;-30
2022/10/24 04:48:16;;;;;;;4.10;1.90;;;;;;;19.08;67.41;96386.38;10554984;28;20412;-31
2022/10/24 04:53:17;;;;;;;5.57;1.50;;;;;;;19.06;66.31;96394.84;10556056;28;20043;-29
2022/10/24 04:58:17;;;;;;;6.33;1.63;;;;;;;18.98;65.71;96405.06;10566570;28;20032;-30
2022/10/24 05:03:19;;;;;;;5.85;1.70;;;;;;;18.95;65.35;96419.47;10553903;28;20047;-31
2022/10/24 05:08:19;;;;;;;7.13;1.33;;;;;;;18.96;66.13;96426.22;10555154;28;20036;-30
2022/10/24 05:13:19;;;;;;;5.50;1.70;;;;;;;18.93;66.17;96421.19;10562427;28;20032;-30
2022/10/24 05:18:20;;;;;;;12.07;2.03;;;;;;;18.94;65.61;96441.47;10561318;28;20298;-30
2022/10/24 05:23:20;;;;;;;5.30;1.67;;;;;;;18.92;65.30;96448.22;10561480;28;20118;-31
2022/10/24 05:28:21;;;;;;;6.23;2.30;;;;;;;18.93;65.66;96408.50;10556944;28;20032;-30
2022/10/24 05:33:22;;;;;;;6.90;1.73;;;;;;;18.90;65.35;96385.66;10556051;28;20948;-31
2022/10/24 05:38:22;;;;;;;9.75;2.00;;;;;;;18.98;68.72;96399.13;10564625;28;20031;-30
2022/10/24 05:43:23;;;;;;;9.23;2.27;;;;;;;19.03;68.83;96388.13;10561267;28;20103;-30
2022/10/24 05:48:23;;;;;;;12.63;2.63;;;;;;;18.84;68.42;96378.94;10555997;28;20293;-32
2022/10/24 05:53:24;;;;;;;8.02;2.00;;;;;;;18.88;66.46;96362.03;10557989;28;20293;-31
2022/10/24 05:58:26;;;;;;;6.50;2.03;;;;;;;18.92;65.58;96358.63;10565103;28;20052;-30
2022/10/24 06:03:26;;;;;;;5.68;1.90;;;;;;;18.92;65.65;96376.38;10556254;28;20054;-30
2022/10/24 06:08:27;;;;;;;7.38;1.88;;;;;;;18.93;65.33;96385.66;10556758;28;20442;-31
2022/10/24 06:13:27;;;;;;;4.87;1.47;;;;;;;18.91;65.15;96378.06;10562379;28;20028;-30
2022/10/24 06:18:28;;;;;;;7.28;1.60;;;;;;;18.91;65.30;96393.28;10563189;28;20036;-30
2022/10/24 06:23:28;;;;;;;3.27;1.70;;;;;;;18.89;65.08;96404.28;10561476;28;20477;-30
2022/10/24 06:28:28;;;;;;;4.30;1.35;;;;;;;18.91;65.17;96440.66;10558675;28;20079;-30
2022/10/24 06:33:30;;;;;;;4.83;1.60;;;;;;;18.90;65.10;96436.41;10557463;28;20031;-30
2022/10/24 06:38:33;;;;;;;3.60;1.63;;;;;;;18.94;67.61;96413.56;10563394;28;20286;-30
2022/10/24 06:43:34;;;;;;;3.78;1.60;;;;;;;19.00;68.38;96410.16;10560309;28;20032;-32
2022/10/24 06:48:36;;;;;;;3.85;2.20;;;;;;;19.05;67.85;96375.41;10556677;28;20027;-30
2022/10/24 06:53:36;;;;;;;2.22;1.20;;;;;;;19.02;66.54;96426.19;10556667;28;20023;-30
2022/10/24 06:58:37;;;;;;;2.57;1.40;;;;;;;18.98;65.65;96445.66;10557357;28;20040;-30
2022/10/24 07:03:37;;;;;;;5.47;1.55;;;;;;;18.94;65.54;96438.94;10561710;28;20035;-30
2022/10/24 07:08:38;;;;;;;3.95;1.48;;;;;;;18.93;65.45;96436.41;10552171;28;20024;-30
2022/10/24 07:13:38;;;;;;;4.73;1.23;;;;;;;18.93;65.35;96446.56;10535145;28;20035;-30
2022/10/24 07:18:39;;;;;;;2.55;1.50;;;;;;;18.90;65.19;96442.34;10562035;28;20691;-30
2022/10/24 07:23:39;;;;;;;1.83;1.30;;;;;;;18.89;64.99;96440.66;10557434;28;20122;-30
2022/10/24 07:28:41;;;;;;;3.33;1.20;;;;;;;18.90;65.18;96461.78;10565149;28;20291;-31
2022/10/24 07:33:42;;;;;;;2.47;1.13;;;;;;;18.89;65.02;96432.19;10561411;28;20269;-30
2022/10/24 07:38:42;;;;;;;3.67;1.40;;;;;;;18.89;65.12;96447.41;10570220;28;20035;-31
2022/10/24 07:43:44;;;;;;;2.35;1.30;;;;;;;18.98;67.93;96465.09;10566442;28;20044;-31
2022/10/24 07:48:47;;;;;;;2.22;1.25;;;;;;;18.99;68.06;96456.66;10561864;28;20059;-31
2022/10/24 07:53:47;;;;;;;4.28;1.48;;;;;;;19.06;66.96;96450.69;10562187;28;20076;-31
2022/10/24 07:58:48;;;;;;;2.75;1.05;;;;;;;19.01;65.97;96465.09;10565489;28;20519;-30
2022/10/24 08:03:49;;;;;;;3.20;1.33;;;;;;;18.95;65.74;96465.13;10567870;28;20085;-30
2022/10/24 08:08:50;;;;;;;3.60;1.38;;;;;;;18.94;65.48;96468.53;10559183;28;20036;-29
2022/10/24 08:13:52;;;;;;;2.67;1.20;;;;;;;18.93;65.43;96464.31;10560672;28;20043;-30
2022/10/24 08:18:55;;;;;;;2.42;1.02;;;;;;;18.89;65.29;96476.16;10564571;28;20028;-31
2022/10/24 08:23:55;;;;;;;3.25;1.70;;;;;;;18.89;64.97;96470.22;10567305;28;20394;-30
2022/10/24 08:28:56;;;;;;;2.17;1.48;;;;;;;18.90;65.23;96471.91;10559910;28;20028;-31
2022/10/24 08:33:58;;;;;;;2.42;1.10;;;;;;;18.89;64.91;96470.22;10562382;28;20039;-29
2022/10/24 08:38:59;;;;;;;3.40;1.45;;;;;;;18.88;65.13;96493.91;10565147;28;20035;-31
2022/10/24 08:44:02;;;;;;;3.13;1.30;;;;;;;18.89;65.02;96490.53;10561093;28;20028;-30
2022/10/24 08:49:18;;;;;;;2.20;1.10;;;;;;;18.95;68.19;96501.50;10561496;28;20027;-30
2022/10/24 08:54:23;;;;;;;2.03;1.17;;;;;;;19.02;67.72;96520.88;10560717;28;20055;-30
2022/10/24 08:59:27;;;;;;;1.63;1.00;;;;;;;19.03;66.39;96539.50;10554075;28;20042;-30
2022/10/24 09:04:33;;;;;;;1.95;1.00;;;;;;;18.98;66.12;96506.56;10560875;28;20537;-32
2022/10/24 09:09:43;;;;;;;1.80;1.30;;;;;;;18.94;65.49;96519.25;10561079;28;20485;-30
2022/10/24 09:14:46;;;;;;;2.58;1.20;;;;;;;18.93;65.43;96515.88;10553539;28;20056;-30
2022/10/24 09:19:56;;;;;;;2.55;1.05;;;;;;;18.94;65.19;96539.56;10549185;28;20642;-31
2022/10/24 09:25:03;;;;;;;1.25;0.88;;;;;;;18.93;65.22;96537.88;10566351;28;20035;-30
2022/10/24 09:30:07;;;;;;;3.08;1.42;;;;;;;18.88;65.02;96526.88;10560266;28;20024;-30
2022/10/24 09:35:14;;;;;;;3.10;1.23;;;;;;;18.90;64.99;96537.88;10555178;28;20583;-31
2022/10/24 09:40:25;;;;;;;2.00;0.88;;;;;;;18.90;64.98;96548.00;10562603;28;20114;-31
2022/10/24 09:45:34;;;;;;;1.35;1.00;;;;;;;18.90;64.96;96558.16;10556455;28;20054;-31
2022/10/24 09:50:35;;;;;;;1.23;0.80;;;;;;;18.94;67.46;96581.00;10557458;28;20031;-30
2022/10/24 09:55:44;;;;;;;2.07;1.10;;;;;;;18.98;67.76;96557.28;10558422;28;20043;-31
2022/10/24 10:00:56;;;;;;;1.40;1.00;;;;;;;19.02;67.56;96588.56;10552266;28;20298;-30
2022/10/24 10:06:03;;;;;;;1.52;0.90;;;;;;;18.96;65.55;96583.50;10558031;28;20039;-30
2022/10/24 10:11:07;;;;;;;2.15;1.00;;;;;;;18.96;65.39;96593.66;10565087;28;20508;-30
2022/10/24 10:16:35;;;;;;;1.67;1.05;;;;;;;18.93;65.89;96560.72;10552139;28;20036;-30
2022/10/24 10:21:54;;;;;;;1.65;1.20;;;;;;;18.90;65.21;96574.25;10548944;28;20028;-29
2022/10/24 10:26:54;;;;;;;3.00;1.05;;;;;;;18.88;67.13;96585.22;10544927;28;20039;-31
2022/10/24 10:31:58;;;;;;;2.97;0.88;;;;;;;18.84;65.71;96588.66;10560424;28;20486;-31
2022/10/24 10:37:17;;;;;;;3.53;1.27;;;;;;;18.86;65.14;96602.16;10557979;28;20031;-32
2022/10/24 10:42:33;;;;;;;2.05;1.05;;;;;;;18.89;65.08;96599.59;10561240;28;20501;-31
2022/10/24 10:47:58;;;;;;;2.20;0.90;;;;;;;18.88;65.21;96583.56;10556903;28;20517;-31
2022/10/24 10:53:14;;;;;;;3.50;1.50;;;;;;;18.87;65.18;96581.88;10552313;28;20050;-30
2022/10/24 10:58:24;;;;;;;3.55;1.42;;;;;;;19.00;67.75;96586.03;10558758;28;20088;-32
2022/10/24 11:03:38;;;;;;;4.32;1.20;;;;;;;18.95;67.88;96576.75;10558016;28;20031;-31
2022/10/24 11:08:44;;;;;;;2.42;1.13;;;;;;;19.03;66.99;96575.03;10561286;28;20021;-30
2022/10/24 11:13:55;;;;;;;1.80;1.02;;;;;;;18.96;65.52;96571.69;10554170;28;20042;-30
2022/10/24 11:19:01;;;;;;;2.03;1.02;;;;;;;18.90;65.08;96570.84;10565760;28;20064;-30
2022/10/24 11:24:11;;;;;;;4.22;1.50;;;;;;;18.92;65.45;96571.72;10572559;28;20037;-31
2022/10/24 11:29:24;;;;;;;2.95;1.20;;;;;;;18.91;65.88;96564.94;10565202;28;20051;-28
2022/10/24 11:34:40;;;;;;;6.13;1.40;;;;;;;18.89;65.48;96562.41;10565586;28;20048;-30
2022/10/24 11:39:54;;;;;;;1.42;0.90;;;;;;;18.89;65.24;96551.41;10561747;28;20101;-30
2022/10/24 11:45:05;;;;;;;3.58;1.13;;;;;;;18.89;65.17;96548.88;10563790;28;20409;-29
2022/10/24 11:50:26;;;;;;;7.78;1.33;;;;;;;18.89;65.15;96537.03;10566359;28;20019;-31
2022/10/24 11:55:36;;;;;;;7.32;1.80;;;;;;;18.87;64.94;96532.81;10567632;28;20023;-32
2022/10/24 12:00:51;;;;;;;5.07;1.77;;;;;;;18.95;68.23;96538.69;10556448;28;20034;-30
2022/10/24 12:06:34;;;;;;;3.30;1.10;;;;;;;19.02;68.58;96533.56;10556328;28;20149;-31
2022/10/24 12:11:37;;;;;;;14.25;1.42;;;;;;;19.04;67.89;96543.72;10560817;28;20027;-31
2022/10/24 12:16:48;;;;;;;2.65;0.95;;;;;;;19.00;65.97;96534.47;10561381;28;20036;-31
2022/10/24 12:21:55;;;;;;;5.00;1.30;;;;;;;18.92;65.63;96534.47;10553498;28;20031;-30
2022/10/24 12:27:01;;;;;;;7.25;1.38;;;;;;;18.92;65.48;96528.56;10551494;27;20085;-31
2022/10/24 12:32:29;;;;;;;6.17;1.17;;;;;;;18.91;65.17;96516.75;10559674;28;20040;-31
2022/10/24 12:37:33;;;;;;;2.67;1.00;;;;;;;18.91;65.31;96524.38;10548098;28;20032;-30
2022/10/24 12:42:34;;;;;;;2.85;1.00;;;;;;;18.89;65.27;96518.44;10561808;28;20024;-29
2022/10/24 12:47:39;;;;;;;5.47;1.27;;;;;;;18.90;65.60;96515.03;10552452;28;20036;-30
2022/10/24 12:52:45;;;;;;;4.05;1.42;;;;;;;18.88;65.13;96499.00;10558285;28;20028;-30
2022/10/24 12:57:46;;;;;;;5.88;1.33;;;;;;;18.87;65.17;96504.91;10562722;28;20035;-30
2022/10/24 13:03:10;;;;;;;18.83;1.90;;;;;;;18.88;64.93;96496.44;10556862;28;20046;-31
2022/10/24 13:08:29;;;;;;;8.93;2.15;;;;;;;19.01;68.81;96503.16;10558884;28;20496;-31
2022/10/24 13:13:44;;;;;;;10.65;2.88;;;;;;;19.07;68.45;96511.56;10563724;28;20401;-30
2022/10/24 13:19:04;;;;;;;4.95;1.60;;;;;;;19.01;66.86;96506.53;10558730;28;20032;-30
2022/10/24 13:24:18;;;;;;;6.15;1.38;;;;;;;19.01;65.70;96515.84;10567158;28;20445;-30
2022/10/24 13:29:24;;;;;;;5.95;1.80;;;;;;;18.90;65.29;96503.22;10561763;28;20028;-31
2022/10/24 13:34:43;;;;;;;4.05;1.60;;;;;;;18.92;65.32;96508.28;10557899;28;20033;-31
2022/10/24 13:39:50;;;;;;;7.13;1.67;;;;;;;18.92;65.54;96495.59;10554866;28;20035;-31
2022/10/24 13:44:57;;;;;;;9.32;3.10;;;;;;;18.90;65.17;96492.22;10559308;28;20078;-30
2022/10/24 13:50:00;;;;;;;;;;;;;;;18.90;65.46;96494.75;10558771;28;20406;-31
2022/10/24 13:55:09;;;;;;;4.53;1.10;;;;;;;18.88;65.30;96491.38;10559897;28;19919;-32
2022/10/24 14:00:29;;;;;;;1.90;1.00;;;;;;;18.87;65.04;96507.44;10562874;28;20107;-30
2022/10/24 14:05:33;;;;;;;3.35;1.05;;;;;;;18.91;64.91;96520.13;10554812;28;20035;-31
2022/10/24 14:10:34;;;;;;;1.67;0.70;;;;;;;18.90;65.01;96522.66;10562979;28;20401;-31
2022/10/24 14:15:34;;;;;;;7.10;1.33;;;;;;;19.03;68.55;96511.59;10562328;28;20039;-31
2022/10/24 14:20:36;;;;;;;3.33;1.33;;;;;;;19.09;68.44;96521.72;10559676;28;20024;-30
2022/10/24 14:25:37;;;;;;;4.53;2.40;;;;;;;19.08;67.23;96514.97;10564611;28;20257;-31
2022/10/24 14:30:37;;;;;;;1.90;0.70;;;;;;;19.00;65.12;96498.94;10558854;28;20393;-30
2022/10/24 14:35:38;;;;;;;2.97;0.70;;;;;;;18.97;65.07;96512.47;10560157;28;20029;-30
2022/10/24 14:40:40;;;;;;;1.85;0.70;;;;;;;18.95;65.23;96518.41;10570412;28;20036;-30
2022/10/24 14:46:01;;;;;;;3.05;0.88;;;;;;;18.96;65.24;96537.84;10561409;28;20397;-30
2022/10/24 14:51:24;;;;;;;2.70;0.98;;;;;;;18.93;65.10;96532.81;10560244;28;20084;-31
2022/10/24 14:56:31;;;;;;;1.00;0.60;;;;;;;18.89;64.78;96526.03;10565540;28;20088;-30
2022/10/24 15:01:31;;;;;;;1.42;0.88;;;;;;;18.91;65.08;96519.28;10557863;28;20473;-30
2022/10/24 15:06:36;;;;;;;1.50;1.10;;;;;;;18.91;65.00;96544.66;10556852;28;20028;-30
2022/10/24 15:11:57;;;;;;;0.98;0.90;;;;;;;18.92;64.97;96520.97;10563146;28;20485;-30
2022/10/24 15:17:04;;;;;;;4.57;1.30;;;;;;;18.97;67.81;96524.31;10558509;28;20035;-31
2022/10/24 15:22:04;;;;;;;;;;;;;;;19.03;69.09;96517.53;10562400;28;20028;-32
2022/10/24 15:27:09;;;;;;;7.10;1.93;;;;;;;18.88;65.64;96509.13;10568441;28;19913;-30
2022/10/24 15:32:10;;;;;;;4.25;1.42;;;;;;;18.99;65.68;96508.22;10565941;28;20477;-30
2022/10/24 15:37:19;;;;;;;3.60;0.82;;;;;;;18.96;65.08;96512.47;10567674;28;20034;-31
2022/10/24 15:42:21;;;;;;;1.05;0.55;;;;;;;18.93;65.02;96512.50;10565584;28;20478;-30
2022/10/24 15:47:22;;;;;;;3.55;1.30;;;;;;;18.92;64.94;96506.56;10555265;28;20111;-31
2022/10/24 15:52:23;;;;;;;3.10;0.90;;;;;;;18.93;64.96;96489.69;10562522;28;20035;-30
2022/10/24 15:57:23;;;;;;;4.18;0.80;;;;;;;18.93;65.09;96482.06;10564636;28;20382;-30
2022/10/24 16:02:24;;;;;;;1.93;0.60;;;;;;;18.89;65.15;96483.78;10565706;28;20404;-30
2022/10/24 16:07:24;;;;;;;1.30;0.70;;;;;;;18.91;64.95;96478.69;10561713;28;20404;-31
2022/10/24 16:12:24;;;;;;;6.03;1.50;;;;;;;18.90;65.85;96502.34;10567151;28;20421;-32
2022/10/24 16:17:25;;;;;;;6.80;1.57;;;;;;;18.91;65.34;96519.28;10548512;27;20119;-30
2022/10/24 16:22:25;;;;;;;18.40;2.73;;;;;;;18.99;67.39;96517.56;10546263;28;20031;-31
2022/10/24 16:27:25;;;;;;;23.77;3.13;;;;;;;19.04;68.89;96520.91;10546099;28;20028;-31
2022/10/24 16:32:26;;;;;;;20.37;2.63;;;;;;;19.08;68.36;96527.66;10562526;27;20287;-31
2022/10/24 16:37:26;;;;;;;8.82;1.80;;;;;;;19.06;66.66;96539.47;10560371;28;20285;-31
2022/10/24 16:42:27;;;;;;;6.70;1.90;;;;;;;19.00;65.60;96544.59;10565951;28;20027;-31
2022/10/24 16:47:28;;;;;;;8.00;1.50;;;;;;;18.97;65.43;96552.22;10565624;28;20028;-31
2022/10/24 16:52:28;;;;;;;4.20;1.35;;;;;;;18.93;65.22;96543.78;10556617;28;20040;-29
2022/10/24 16:57:29;;;;;;;9.75;1.30;;;;;;;18.95;65.49;96556.47;10566267;28;20439;-30
2022/10/24 17:02:29;;;;;;;4.53;1.20;;;;;;;18.92;65.68;96559.03;10554762;28;20027;-31
2022/10/24 17:07:30;;;;;;;4.37;1.00;;;;;;;18.94;64.74;96557.31;10563906;28;20285;-30
2022/10/24 17:12:30;;;;;;;5.47;1.90;;;;;;;18.92;65.09;96556.47;10562369;28;20280;-31
2022/10/24 17:17:32;;;;;;;4.45;1.20;;;;;;;18.88;65.00;96554.78;10557779;28;20296;-31
2022/10/24 17:22:33;;;;;;;3.80;0.90;;;;;;;18.85;65.22;96559.91;10560956;28;20126;-30
2022/10/24 17:27:33;;;;;;;8.38;2.70;;;;;;;18.98;69.08;96576.72;10563962;28;20114;-31
2022/10/24 17:32:33;;;;;;;6.82;2.20;;;;;;;19.08;68.64;96583.47;10550446;28;20024;-31
2022/10/24 17:37:43;;;;;;;10.07;1.70;;;;;;;19.10;68.48;96581.78;10561576;28;20032;-30
2022/10/24 17:42:46;;;;;;;9.80;1.40;;;;;;;19.02;67.05;96583.50;10546373;28;20028;-30
2022/10/24 17:47:48;;;;;;;7.25;2.70;;;;;;;18.99;66.30;96579.28;10563802;28;20780;-30
2022/10/24 17:52:50;;;;;;;2.97;0.93;;;;;;;18.91;65.74;96583.53;10557191;28;20029;-30
2022/10/24 17:57:50;;;;;;;3.47;1.00;;;;;;;18.97;65.59;96593.66;10564284;28;20035;-30
2022/10/24 18:02:51;;;;;;;4.97;1.10;;;;;;;19.02;65.01;96596.19;10556160;28;20741;-30
2022/10/24 18:07:52;;;;;;;3.83;0.93;;;;;;;19.05;65.20;96614.78;10549371;28;20034;-31
2022/10/24 18:12:52;;;;;;;3.28;1.20;;;;;;;19.06;65.11;96602.91;10557794;28;20023;-30
2022/10/24 18:17:53;;;;;;;3.63;1.30;;;;;;;19.09;64.85;96620.69;10560159;28;20028;-30
2022/10/24 18:22:53;;;;;;;3.08;1.20;;;;;;;19.10;65.11;96630.81;10553026;28;20466;-30
2022/10/24 18:27:55;;;;;;;4.93;1.20;;;;;;;19.10;65.34;96637.59;10556366;28;20302;-30
2022/10/24 18:32:55;;;;;;;8.43;1.83;;;;;;;19.09;66.82;96651.97;10547190;28;20280;-30
2022/10/24 18:37:55;;;;;;;5.80;1.70;;;;;;;19.12;67.96;96644.38;10550494;28;20042;-31
2022/10/24 18:43:04;;;;;;;6.13;1.63;;;;;;;19.12;67.46;96651.97;10539288;28;20032;-30
2022/10/24 18:48:04;;;;;;;2.85;1.02;;;;;;;19.13;65.59;96637.56;10551980;28;20028;-31
2022/10/24 18:53:12;;;;;;;3.22;1.20;;;;;;;19.10;65.54;96635.88;10550422;28;20032;-30
2022/10/24 18:58:17;;;;;;;3.00;1.23;;;;;;;19.08;65.19;96636.75;10559790;28;20495;-32
2022/10/24 19:03:35;;;;;;;1.50;0.90;;;;;;;19.05;65.27;96631.69;10555185;28;20186;-30
2022/10/24 19:08:36;;;;;;;5.70;1.20;;;;;;;19.05;65.51;96645.22;10548124;28;20071;-29
2022/10/24 19:13:36;;;;;;;5.22;1.27;;;;;;;19.06;66.88;96651.13;10557363;28;20402;-30
2022/10/24 19:18:37;;;;;;;2.75;1.02;;;;;;;19.04;65.44;96655.38;10557917;28;20500;-31
2022/10/24 19:23:37;;;;;;;1.90;0.90;;;;;;;19.06;65.84;96640.97;10558830;28;20552;-31
2022/10/24 19:28:38;;;;;;;3.07;1.17;;;;;;;19.07;65.85;96642.66;10564668;28;20040;-30
2022/10/24 19:33:40;;;;;;;3.58;1.88;;;;;;;19.05;65.89;96639.28;10558466;28;20111;-30
2022/10/24 19:38:40;;;;;;;2.63;1.38;;;;;;;19.12;67.80;96712.03;10566604;28;20090;-29
2022/10/24 19:43:40;;;;;;;5.20;1.90;;;;;;;19.14;68.15;96700.16;10560297;28;20139;-31
2022/10/24 19:48:41;;;;;;;1.97;1.07;;;;;;;19.12;67.46;96707.81;10559627;28;20031;-31
2022/10/24 19:53:43;;;;;;;3.60;1.35;;;;;;;19.11;65.77;96695.97;10554143;28;20031;-29
2022/10/24 19:58:43;;;;;;;4.47;1.58;;;;;;;19.10;65.19;96709.47;10558636;28;20038;-30
2022/10/24 20:03:45;;;;;;;3.55;1.15;;;;;;;19.08;65.26;96715.44;10555594;28;20032;-30
2022/10/24 20:08:47;;;;;;;2.22;0.88;;;;;;;19.10;65.78;96734.03;10555267;28;20038;-29
2022/10/24 20:13:49;;;;;;;2.03;1.20;;;;;;;19.11;65.56;96725.56;10552202;28;20032;-30
2022/10/24 20:18:49;;;;;;;1.50;1.05;;;;;;;19.10;65.64;96728.94;10563655;28;20036;-31
2022/10/24 20:23:50;;;;;;;2.77;1.20;;;;;;;19.09;65.42;96732.34;10559365;28;20057;-29
2022/10/24 20:28:52;;;;;;;3.00;1.17;;;;;;;19.05;65.24;96736.56;10562220;28;20039;-30
2022/10/24 20:34:00;;;;;;;1.88;0.90;;;;;;;19.07;65.23;96734.00;10553492;28;20131;-31
2022/10/24 20:39:00;;;;;;;1.58;0.70;;;;;;;19.03;65.26;96722.19;10563326;28;20297;-30
2022/10/24 20:44:01;;;;;;;2.45;1.02;;;;;;;19.08;67.77;96715.44;10555642;28;20043;-30
2022/10/24 20:49:02;;;;;;;2.53;1.10;;;;;;;19.10;68.34;96734.03;10560448;28;20035;-31
2022/10/24 20:54:07;;;;;;;2.70;0.95;;;;;;;19.10;67.50;96734.84;10560954;28;20027;-30
2022/10/24 20:59:08;;;;;;;3.22;1.00;;;;;;;19.07;65.72;96744.16;10557545;28;20031;-30
2022/10/24 21:04:08;;;;;;;1.50;1.00;;;;;;;19.02;65.70;96753.50;10560815;28;20031;-29
2022/10/24 21:09:08;;;;;;;1.50;0.77;;;;;;;19.05;65.69;96771.25;10563413;28;20289;-29
2022/10/24 21:14:10;;;;;;;1.23;0.77;;;;;;;19.06;65.58;96767.84;10552843;28;20038;-30
2022/10/24 21:19:11;;;;;;;2.15;0.80;;;;;;;19.02;65.39;96776.34;10562804;28;20032;-30
2022/10/24 21:24:16;;;;;;;1.80;0.80;;;;;;;19.00;65.41;96776.31;10560872;28;20028;-29
2022/10/24 21:29:17;;;;;;;1.15;0.55;;;;;;;19.03;65.22;96767.88;10562053;28;20281;-30
2022/10/24 21:34:17;;;;;;;0.70;0.60;;;;;;;19.03;65.32;96785.63;10561972;28;20027;-30
2022/10/24 21:39:18;;;;;;;1.17;0.70;;;;;;;19.02;65.55;96791.56;10558106;28;20084;-30
2022/10/24 21:44:22;;;;;;;4.83;1.10;;;;;;;19.01;65.34;96789.88;10557554;28;20077;-29
2022/10/24 21:49:24;;;;;;;2.10;0.80;;;;;;;19.05;68.49;96796.63;10559931;28;20032;-30
2022/10/24 21:54:25;;;;;;;3.20;1.10;;;;;;;19.06;68.72;96793.22;10562539;28;20027;-30
2022/10/24 21:59:25;;;;;;;3.03;1.23;;;;;;;19.08;67.38;96804.25;10559497;28;20036;-30
2022/10/24 22:04:25;;;;;;;2.07;1.00;;;;;;;19.04;66.15;96795.78;10555777;28;20036;-29
2022/10/24 22:09:26;;;;;;;1.25;0.73;;;;;;;19.03;65.84;96811.00;10560956;28;20035;-29
2022/10/24 22:14:26;;;;;;;2.20;0.80;;;;;;;19.01;65.63;96815.25;10559177;28;20122;-30
2022/10/24 22:19:27;;;;;;;1.23;1.07;;;;;;;18.99;65.48;96804.25;10550858;28;20398;-29
2022/10/24 22:24:27;;;;;;;1.08;0.80;;;;;;;19.01;65.34;96807.63;10564627;28;20350;-30
2022/10/24 22:29:28;;;;;;;0.63;0.60;;;;;;;19.01;65.50;96812.69;10560386;28;20020;-31
2022/10/24 22:34:28;;;;;;;1.02;0.75;;;;;;;18.99;65.38;96817.78;10559315;28;20111;-29
2022/10/24 22:39:29;;;;;;;1.40;0.80;;;;;;;18.97;65.55;96818.59;10555385;28;20024;-29
2022/10/24 22:44:29;;;;;;;1.80;0.60;;;;;;;18.98;65.63;96825.38;10558675;28;20067;-30
2022/10/24 22:49:32;;;;;;;1.05;0.75;;;;;;;18.98;65.53;96827.91;10561603;28;20088;-30
2022/10/24 22:54:34;;;;;;;2.90;1.00;;;;;;;19.01;68.58;96831.28;10562342;28;20031;-30
2022/10/24 22:59:35;;;;;;;3.30;2.03;;;;;;;19.04;68.49;96835.53;10563412;28;20481;-29
2022/10/24 23:05:06;;;;;;;1.65;0.95;;;;;;;19.05;67.52;96837.22;10568929;28;20039;-29
2022/10/24 23:10:12;;;;;;;1.70;1.00;;;;;;;19.02;66.78;96848.19;10556101;28;20105;-30
2022/10/24 23:15:15;;;;;;;1.08;0.80;;;;;;;19.00;66.21;96847.38;10567715;28;20048;-30
2022/10/24 23:20:40;;;;;;;1.17;0.70;;;;;;;18.99;65.69;96857.53;10564333;28;20039;-30
2022/10/24 23:25:55;;;;;;;3.17;0.90;;;;;;;18.98;65.47;96860.88;10564231;28;20031;-30
2022/10/24 23:30:55;;;;;;;2.50;1.02;;;;;;;18.93;65.42;96857.53;10562635;28;20282;-30
2022/10/24 23:35:58;;;;;;;1.67;0.60;;;;;;;18.94;65.43;96864.28;10565352;28;20918;-29